sensor_id;sensor_type;location;lat;lon;timestamp;P1;durP1;ratioP1;P2;durP2;ratioP2
34920;SDS011;21128;50.016;20.002;2022-07-29T00:00:29;8.03;;;5.45;;
34920;SDS011;21128;50.016;20.002;2022-07-29T00:03:03;10.23;;;5.67;;
34920;SDS011;21128;50.016;20.002;2022-07-29T00:05:30;9.68;;;5.22;;
34920;SDS011;21128;50.016;20.002;2022-07-29T00:07:57;12.50;;;5.63;;
34920;SDS011;21128;50.016;20.002;2022-07-29T00:10:24;9.90;;;5.60;;
34920;SDS011;21128;50.016;20.002;2022-07-29T00:12:51;10.55;;;5.42;;
34920;SDS011;21128;50.016;20.002;2022-07-29T00:15:17;15.43;;;5.80;;
34920;SDS011;21128;50.016;20.002;2022-07-29T00:17:44;11.43;;;5.90;;
34920;SDS011;21128;50.016;20.002;2022-07-29T00:20:11;16.73;;;6.47;;
34920;SDS011;21128;50.016;20.002;2022-07-29T00:22:44;10.90;;;5.70;;
34920;SDS011;21128;50.016;20.002;2022-07-29T00:25:11;14.47;;;6.40;;
34920;SDS011;21128;50.016;20.002;2022-07-29T00:27:39;15.00;;;5.80;;
34920;SDS011;21128;50.016;20.002;2022-07-29T00:30:12;12.35;;;6.50;;
34920;SDS011;21128;50.016;20.002;2022-07-29T00:32:52;14.83;;;5.60;;
34920;SDS011;21128;50.016;20.002;2022-07-29T00:35:19;11.10;;;5.00;;
34920;SDS011;21128;50.016;20.002;2022-07-29T00:38:05;17.95;;;5.25;;
34920;SDS011;21128;50.016;20.002;2022-07-29T00:40:31;13.10;;;5.53;;
34920;SDS011;21128;50.016;20.002;2022-07-29T00:43:05;11.77;;;5.77;;
34920;SDS011;21128;50.016;20.002;2022-07-29T00:45:32;11.50;;;5.40;;
34920;SDS011;21128;50.016;20.002;2022-07-29T00:48:01;9.33;;;5.63;;
34920;SDS011;21128;50.016;20.002;2022-07-29T00:50:37;13.70;;;5.45;;
34920;SDS011;21128;50.016;20.002;2022-07-29T00:53:05;13.90;;;5.33;;
34920;SDS011;21128;50.016;20.002;2022-07-29T00:55:33;8.70;;;4.73;;
34920;SDS011;21128;50.016;20.002;2022-07-29T00:58:01;10.33;;;5.67;;
34920;SDS011;21128;50.016;20.002;2022-07-29T01:00:29;8.97;;;4.90;;
34920;SDS011;21128;50.016;20.002;2022-07-29T01:02:57;7.23;;;4.80;;
34920;SDS011;21128;50.016;20.002;2022-07-29T01:05:24;12.95;;;4.80;;
34920;SDS011;21128;50.016;20.002;2022-07-29T01:07:54;15.73;;;5.00;;
34920;SDS011;21128;50.016;20.002;2022-07-29T01:10:23;9.07;;;4.77;;
34920;SDS011;21128;50.016;20.002;2022-07-29T01:12:51;14.57;;;5.07;;
34920;SDS011;21128;50.016;20.002;2022-07-29T01:15:20;17.30;;;5.15;;
34920;SDS011;21128;50.016;20.002;2022-07-29T01:18:00;11.87;;;5.27;;
34920;SDS011;21128;50.016;20.002;2022-07-29T01:29:12;12.97;;;5.40;;
34920;SDS011;21128;50.016;20.002;2022-07-29T01:34:55;10.13;;;4.47;;
34920;SDS011;21128;50.016;20.002;2022-07-29T01:37:41;7.97;;;4.43;;
34920;SDS011;21128;50.016;20.002;2022-07-29T01:40:15;18.80;;;5.15;;
34920;SDS011;21128;50.016;20.002;2022-07-29T01:42:49;13.07;;;5.03;;
34920;SDS011;21128;50.016;20.002;2022-07-29T01:45:27;10.97;;;4.53;;
34920;SDS011;21128;50.016;20.002;2022-07-29T01:48:12;12.27;;;4.90;;
34920;SDS011;21128;50.016;20.002;2022-07-29T01:51:18;14.97;;;4.33;;
34920;SDS011;21128;50.016;20.002;2022-07-29T01:56:16;11.53;;;4.53;;
34920;SDS011;21128;50.016;20.002;2022-07-29T01:58:46;7.23;;;4.03;;
34920;SDS011;21128;50.016;20.002;2022-07-29T02:01:14;7.93;;;4.53;;
34920;SDS011;21128;50.016;20.002;2022-07-29T02:03:43;10.03;;;4.10;;
34920;SDS011;21128;50.016;20.002;2022-07-29T02:06:12;9.40;;;3.90;;
34920;SDS011;21128;50.016;20.002;2022-07-29T02:08:50;5.13;;;3.27;;
34920;SDS011;21128;50.016;20.002;2022-07-29T02:11:19;11.13;;;4.00;;
34920;SDS011;21128;50.016;20.002;2022-07-29T02:13:45;8.28;;;3.90;;
34920;SDS011;21128;50.016;20.002;2022-07-29T02:16:15;11.85;;;4.70;;
34920;SDS011;21128;50.016;20.002;2022-07-29T02:18:47;13.50;;;3.90;;
34920;SDS011;21128;50.016;20.002;2022-07-29T02:21:19;8.30;;;3.50;;
34920;SDS011;21128;50.016;20.002;2022-07-29T02:23:49;10.80;;;3.50;;
34920;SDS011;21128;50.016;20.002;2022-07-29T02:26:20;6.83;;;3.93;;
34920;SDS011;21128;50.016;20.002;2022-07-29T02:28:49;7.53;;;3.57;;
34920;SDS011;21128;50.016;20.002;2022-07-29T02:31:33;7.90;;;3.77;;
34920;SDS011;21128;50.016;20.002;2022-07-29T02:34:03;23.73;;;4.20;;
34920;SDS011;21128;50.016;20.002;2022-07-29T02:36:39;10.07;;;3.47;;
34920;SDS011;21128;50.016;20.002;2022-07-29T02:39:09;8.50;;;3.63;;
34920;SDS011;21128;50.016;20.002;2022-07-29T02:41:41;5.10;;;3.20;;
34920;SDS011;21128;50.016;20.002;2022-07-29T02:44:15;6.67;;;3.92;;
34920;SDS011;21128;50.016;20.002;2022-07-29T02:47:08;8.77;;;3.87;;
34920;SDS011;21128;50.016;20.002;2022-07-29T02:49:46;9.63;;;3.43;;
34920;SDS011;21128;50.016;20.002;2022-07-29T02:52:44;12.97;;;3.77;;
34920;SDS011;21128;50.016;20.002;2022-07-29T02:55:33;11.25;;;4.55;;
34920;SDS011;21128;50.016;20.002;2022-07-29T02:58:13;8.47;;;3.53;;
34920;SDS011;21128;50.016;20.002;2022-07-29T03:00:49;9.13;;;4.37;;
34920;SDS011;21128;50.016;20.002;2022-07-29T03:03:18;13.13;;;4.43;;
34920;SDS011;21128;50.016;20.002;2022-07-29T03:05:45;11.30;;;4.25;;
34920;SDS011;21128;50.016;20.002;2022-07-29T03:08:12;9.67;;;3.70;;
34920;SDS011;21128;50.016;20.002;2022-07-29T03:10:43;13.13;;;4.13;;
34920;SDS011;21128;50.016;20.002;2022-07-29T03:13:12;9.13;;;4.53;;
34920;SDS011;21128;50.016;20.002;2022-07-29T03:15:39;17.30;;;4.17;;
34920;SDS011;21128;50.016;20.002;2022-07-29T03:18:10;16.07;;;3.90;;
34920;SDS011;21128;50.016;20.002;2022-07-29T03:20:37;8.80;;;4.27;;
34920;SDS011;21128;50.016;20.002;2022-07-29T03:23:05;8.17;;;4.30;;
34920;SDS011;21128;50.016;20.002;2022-07-29T03:25:32;8.17;;;4.10;;
34920;SDS011;21128;50.016;20.002;2022-07-29T03:27:59;12.03;;;4.62;;
34920;SDS011;21128;50.016;20.002;2022-07-29T03:30:26;7.83;;;4.27;;
34920;SDS011;21128;50.016;20.002;2022-07-29T03:33:00;8.75;;;4.50;;
34920;SDS011;21128;50.016;20.002;2022-07-29T03:35:27;8.80;;;4.17;;
34920;SDS011;21128;50.016;20.002;2022-07-29T03:38:00;11.25;;;4.20;;
34920;SDS011;21128;50.016;20.002;2022-07-29T03:40:31;8.45;;;4.17;;
34920;SDS011;21128;50.016;20.002;2022-07-29T03:43:04;10.53;;;3.83;;
34920;SDS011;21128;50.016;20.002;2022-07-29T03:45:35;10.97;;;3.57;;
34920;SDS011;21128;50.016;20.002;2022-07-29T03:48:10;6.77;;;3.60;;
34920;SDS011;21128;50.016;20.002;2022-07-29T03:50:40;10.23;;;3.83;;
34920;SDS011;21128;50.016;20.002;2022-07-29T03:53:07;10.17;;;3.53;;
34920;SDS011;21128;50.016;20.002;2022-07-29T03:55:36;6.77;;;3.37;;
34920;SDS011;21128;50.016;20.002;2022-07-29T03:58:07;6.53;;;3.40;;
34920;SDS011;21128;50.016;20.002;2022-07-29T04:00:37;11.80;;;3.50;;
34920;SDS011;21128;50.016;20.002;2022-07-29T04:03:04;10.37;;;4.03;;
34920;SDS011;21128;50.016;20.002;2022-07-29T04:05:31;9.13;;;3.60;;
34920;SDS011;21128;50.016;20.002;2022-07-29T04:07:58;6.83;;;3.27;;
34920;SDS011;21128;50.016;20.002;2022-07-29T04:10:25;11.83;;;3.23;;
34920;SDS011;21128;50.016;20.002;2022-07-29T04:12:51;9.60;;;3.20;;
34920;SDS011;21128;50.016;20.002;2022-07-29T04:15:19;7.33;;;3.10;;
34920;SDS011;21128;50.016;20.002;2022-07-29T04:17:46;6.35;;;3.40;;
34920;SDS011;21128;50.016;20.002;2022-07-29T04:20:13;9.43;;;3.23;;
34920;SDS011;21128;50.016;20.002;2022-07-29T04:22:40;7.53;;;3.10;;
34920;SDS011;21128;50.016;20.002;2022-07-29T04:25:13;8.27;;;3.37;;
34920;SDS011;21128;50.016;20.002;2022-07-29T04:27:40;9.60;;;3.17;;
34920;SDS011;21128;50.016;20.002;2022-07-29T04:30:26;6.57;;;3.93;;
34920;SDS011;21128;50.016;20.002;2022-07-29T04:33:02;5.93;;;3.10;;
34920;SDS011;21128;50.016;20.002;2022-07-29T04:35:30;6.35;;;3.35;;
34920;SDS011;21128;50.016;20.002;2022-07-29T04:38:00;8.73;;;3.10;;
34920;SDS011;21128;50.016;20.002;2022-07-29T04:40:27;9.70;;;3.70;;
34920;SDS011;21128;50.016;20.002;2022-07-29T04:42:54;4.73;;;2.93;;
34920;SDS011;21128;50.016;20.002;2022-07-29T04:45:21;7.22;;;3.30;;
34920;SDS011;21128;50.016;20.002;2022-07-29T04:47:48;7.43;;;3.73;;
34920;SDS011;21128;50.016;20.002;2022-07-29T04:50:22;10.27;;;3.13;;
34920;SDS011;21128;50.016;20.002;2022-07-29T04:52:49;6.87;;;3.17;;
34920;SDS011;21128;50.016;20.002;2022-07-29T04:55:16;7.65;;;2.85;;
34920;SDS011;21128;50.016;20.002;2022-07-29T04:57:44;9.25;;;3.40;;
34920;SDS011;21128;50.016;20.002;2022-07-29T05:00:12;9.85;;;3.50;;
34920;SDS011;21128;50.016;20.002;2022-07-29T05:02:39;7.10;;;3.30;;
34920;SDS011;21128;50.016;20.002;2022-07-29T05:05:06;11.17;;;3.07;;
34920;SDS011;21128;50.016;20.002;2022-07-29T05:07:33;10.50;;;2.93;;
34920;SDS011;21128;50.016;20.002;2022-07-29T05:10:00;8.40;;;2.60;;
34920;SDS011;21128;50.016;20.002;2022-07-29T05:12:27;7.15;;;3.00;;
34920;SDS011;21128;50.016;20.002;2022-07-29T05:14:54;7.97;;;3.80;;
34920;SDS011;21128;50.016;20.002;2022-07-29T05:17:21;7.80;;;3.17;;
34920;SDS011;21128;50.016;20.002;2022-07-29T05:19:47;7.50;;;3.27;;
34920;SDS011;21128;50.016;20.002;2022-07-29T05:22:14;8.37;;;2.87;;
34920;SDS011;21128;50.016;20.002;2022-07-29T05:24:47;5.73;;;2.73;;
34920;SDS011;21128;50.016;20.002;2022-07-29T05:27:15;11.45;;;3.05;;
34920;SDS011;21128;50.016;20.002;2022-07-29T05:29:41;7.00;;;2.63;;
34920;SDS011;21128;50.016;20.002;2022-07-29T05:32:21;5.63;;;2.70;;
34920;SDS011;21128;50.016;20.002;2022-07-29T05:34:48;8.50;;;3.37;;
34920;SDS011;21128;50.016;20.002;2022-07-29T05:37:15;6.10;;;3.10;;
34920;SDS011;21128;50.016;20.002;2022-07-29T05:39:41;11.80;;;2.85;;
34920;SDS011;21128;50.016;20.002;2022-07-29T05:42:09;10.40;;;3.25;;
34920;SDS011;21128;50.016;20.002;2022-07-29T05:44:37;9.27;;;3.23;;
34920;SDS011;21128;50.016;20.002;2022-07-29T05:47:04;4.97;;;2.30;;
34920;SDS011;21128;50.016;20.002;2022-07-29T05:49:39;9.47;;;2.57;;
34920;SDS011;21128;50.016;20.002;2022-07-29T05:52:06;7.97;;;2.70;;
34920;SDS011;21128;50.016;20.002;2022-07-29T05:54:33;9.70;;;3.23;;
34920;SDS011;21128;50.016;20.002;2022-07-29T05:57:01;4.50;;;2.43;;
34920;SDS011;21128;50.016;20.002;2022-07-29T05:59:28;9.80;;;2.87;;
34920;SDS011;21128;50.016;20.002;2022-07-29T06:01:55;12.20;;;3.23;;
34920;SDS011;21128;50.016;20.002;2022-07-29T06:04:23;12.03;;;3.23;;
34920;SDS011;21128;50.016;20.002;2022-07-29T06:06:49;10.00;;;3.23;;
34920;SDS011;21128;50.016;20.002;2022-07-29T06:09:16;7.20;;;3.10;;
34920;SDS011;21128;50.016;20.002;2022-07-29T06:11:43;9.60;;;3.27;;
34920;SDS011;21128;50.016;20.002;2022-07-29T06:14:10;6.53;;;2.85;;
34920;SDS011;21128;50.016;20.002;2022-07-29T06:16:37;9.63;;;3.27;;
34920;SDS011;21128;50.016;20.002;2022-07-29T06:19:04;9.63;;;2.83;;
34920;SDS011;21128;50.016;20.002;2022-07-29T06:21:30;6.37;;;2.60;;
34920;SDS011;21128;50.016;20.002;2022-07-29T06:23:57;12.80;;;3.23;;
34920;SDS011;21128;50.016;20.002;2022-07-29T06:26:30;8.70;;;2.80;;
34920;SDS011;21128;50.016;20.002;2022-07-29T06:28:57;10.80;;;3.07;;
34920;SDS011;21128;50.016;20.002;2022-07-29T06:31:24;8.27;;;3.00;;
34920;SDS011;21128;50.016;20.002;2022-07-29T06:34:04;6.13;;;2.90;;
34920;SDS011;21128;50.016;20.002;2022-07-29T06:36:34;5.73;;;2.37;;
34920;SDS011;21128;50.016;20.002;2022-07-29T06:39:05;6.80;;;3.03;;
34920;SDS011;21128;50.016;20.002;2022-07-29T06:41:33;9.17;;;2.80;;
34920;SDS011;21128;50.016;20.002;2022-07-29T06:44:00;6.50;;;2.40;;
34920;SDS011;21128;50.016;20.002;2022-07-29T06:46:27;5.60;;;2.70;;
34920;SDS011;21128;50.016;20.002;2022-07-29T06:49:00;5.10;;;3.03;;
34920;SDS011;21128;50.016;20.002;2022-07-29T06:51:28;7.77;;;2.73;;
34920;SDS011;21128;50.016;20.002;2022-07-29T06:53:55;10.68;;;3.00;;
34920;SDS011;21128;50.016;20.002;2022-07-29T06:56:23;7.60;;;3.03;;
34920;SDS011;21128;50.016;20.002;2022-07-29T06:58:51;7.80;;;3.00;;
34920;SDS011;21128;50.016;20.002;2022-07-29T07:01:18;6.50;;;2.40;;
34920;SDS011;21128;50.016;20.002;2022-07-29T07:03:44;7.10;;;3.10;;
34920;SDS011;21128;50.016;20.002;2022-07-29T07:06:11;7.97;;;2.92;;
34920;SDS011;21128;50.016;20.002;2022-07-29T07:08:38;3.60;;;2.77;;
34920;SDS011;21128;50.016;20.002;2022-07-29T07:11:11;5.67;;;2.80;;
34920;SDS011;21128;50.016;20.002;2022-07-29T07:13:38;5.87;;;2.93;;
34920;SDS011;21128;50.016;20.002;2022-07-29T07:16:05;6.47;;;2.63;;
34920;SDS011;21128;50.016;20.002;2022-07-29T07:18:38;9.90;;;2.70;;
34920;SDS011;21128;50.016;20.002;2022-07-29T07:21:05;8.13;;;2.62;;
34920;SDS011;21128;50.016;20.002;2022-07-29T07:23:32;7.30;;;2.90;;
34920;SDS011;21128;50.016;20.002;2022-07-29T07:25:59;6.60;;;3.17;;
34920;SDS011;21128;50.016;20.002;2022-07-29T07:28:26;9.67;;;2.50;;
34920;SDS011;21128;50.016;20.002;2022-07-29T07:30:52;12.50;;;3.20;;
34920;SDS011;21128;50.016;20.002;2022-07-29T07:33:26;4.67;;;2.90;;
34920;SDS011;21128;50.016;20.002;2022-07-29T07:35:52;9.43;;;3.00;;
34920;SDS011;21128;50.016;20.002;2022-07-29T07:38:20;5.93;;;3.07;;
34920;SDS011;21128;50.016;20.002;2022-07-29T07:40:47;6.60;;;2.83;;
34920;SDS011;21128;50.016;20.002;2022-07-29T07:43:14;9.57;;;2.67;;
34920;SDS011;21128;50.016;20.002;2022-07-29T07:45:40;5.37;;;2.97;;
34920;SDS011;21128;50.016;20.002;2022-07-29T07:48:07;8.40;;;2.50;;
34920;SDS011;21128;50.016;20.002;2022-07-29T07:50:42;8.33;;;2.70;;
34920;SDS011;21128;50.016;20.002;2022-07-29T07:53:10;7.63;;;3.00;;
34920;SDS011;21128;50.016;20.002;2022-07-29T07:55:41;7.15;;;2.90;;
34920;SDS011;21128;50.016;20.002;2022-07-29T07:58:09;10.17;;;3.87;;
34920;SDS011;21128;50.016;20.002;2022-07-29T08:00:35;9.50;;;3.00;;
34920;SDS011;21128;50.016;20.002;2022-07-29T08:03:02;8.73;;;2.90;;
34920;SDS011;21128;50.016;20.002;2022-07-29T08:05:30;9.57;;;3.00;;
34920;SDS011;21128;50.016;20.002;2022-07-29T08:07:56;7.23;;;3.23;;
34920;SDS011;21128;50.016;20.002;2022-07-29T08:10:23;6.77;;;2.67;;
34920;SDS011;21128;50.016;20.002;2022-07-29T08:13:09;6.03;;;2.63;;
34920;SDS011;21128;50.016;20.002;2022-07-29T08:15:38;9.23;;;2.70;;
34920;SDS011;21128;50.016;20.002;2022-07-29T08:18:07;7.83;;;2.60;;
34920;SDS011;21128;50.016;20.002;2022-07-29T08:20:40;5.57;;;2.50;;
34920;SDS011;21128;50.016;20.002;2022-07-29T08:23:07;8.07;;;2.40;;
34920;SDS011;21128;50.016;20.002;2022-07-29T08:25:35;12.87;;;3.07;;
34920;SDS011;21128;50.016;20.002;2022-07-29T08:28:04;10.93;;;2.50;;
34920;SDS011;21128;50.016;20.002;2022-07-29T08:30:32;3.33;;;2.30;;
34920;SDS011;21128;50.016;20.002;2022-07-29T08:33:11;6.17;;;2.40;;
34920;SDS011;21128;50.016;20.002;2022-07-29T08:35:38;5.90;;;2.60;;
34920;SDS011;21128;50.016;20.002;2022-07-29T08:38:05;9.53;;;2.30;;
34920;SDS011;21128;50.016;20.002;2022-07-29T08:40:32;6.00;;;2.50;;
34920;SDS011;21128;50.016;20.002;2022-07-29T08:43:03;8.77;;;2.50;;
34920;SDS011;21128;50.016;20.002;2022-07-29T08:45:42;7.90;;;2.53;;
34920;SDS011;21128;50.016;20.002;2022-07-29T08:48:11;8.35;;;2.40;;
34920;SDS011;21128;50.016;20.002;2022-07-29T08:50:46;5.13;;;2.40;;
34920;SDS011;21128;50.016;20.002;2022-07-29T08:53:15;6.30;;;2.70;;
34920;SDS011;21128;50.016;20.002;2022-07-29T08:55:45;9.00;;;2.70;;
34920;SDS011;21128;50.016;20.002;2022-07-29T08:58:15;4.23;;;2.40;;
34920;SDS011;21128;50.016;20.002;2022-07-29T09:00:44;7.57;;;2.83;;
34920;SDS011;21128;50.016;20.002;2022-07-29T09:03:15;4.90;;;2.27;;
34920;SDS011;21128;50.016;20.002;2022-07-29T09:05:47;3.77;;;2.07;;
34920;SDS011;21128;50.016;20.002;2022-07-29T09:08:14;7.83;;;2.07;;
34920;SDS011;21128;50.016;20.002;2022-07-29T09:10:43;6.07;;;3.10;;
34920;SDS011;21128;50.016;20.002;2022-07-29T09:13:11;3.13;;;2.10;;
34920;SDS011;21128;50.016;20.002;2022-07-29T09:15:38;5.47;;;2.10;;
34920;SDS011;21128;50.016;20.002;2022-07-29T09:18:05;8.65;;;2.60;;
34920;SDS011;21128;50.016;20.002;2022-07-29T09:20:31;6.50;;;2.03;;
34920;SDS011;21128;50.016;20.002;2022-07-29T09:23:23;6.63;;;2.50;;
34920;SDS011;21128;50.016;20.002;2022-07-29T09:25:50;9.03;;;2.07;;
34920;SDS011;21128;50.016;20.002;2022-07-29T09:28:17;4.85;;;2.15;;
34920;SDS011;21128;50.016;20.002;2022-07-29T09:30:54;6.50;;;2.30;;
34920;SDS011;21128;50.016;20.002;2022-07-29T09:33:36;4.97;;;2.07;;
34920;SDS011;21128;50.016;20.002;2022-07-29T09:36:07;5.70;;;2.07;;
34920;SDS011;21128;50.016;20.002;2022-07-29T09:38:36;5.07;;;2.20;;
34920;SDS011;21128;50.016;20.002;2022-07-29T09:41:09;4.80;;;2.10;;
34920;SDS011;21128;50.016;20.002;2022-07-29T09:43:36;6.23;;;2.20;;
34920;SDS011;21128;50.016;20.002;2022-07-29T09:46:13;4.43;;;2.10;;
34920;SDS011;21128;50.016;20.002;2022-07-29T09:48:40;8.10;;;2.20;;
34920;SDS011;21128;50.016;20.002;2022-07-29T09:51:19;7.55;;;1.80;;
34920;SDS011;21128;50.016;20.002;2022-07-29T09:53:53;6.30;;;2.40;;
34920;SDS011;21128;50.016;20.002;2022-07-29T09:56:23;7.80;;;2.37;;
34920;SDS011;21128;50.016;20.002;2022-07-29T09:59:05;5.60;;;2.30;;
34920;SDS011;21128;50.016;20.002;2022-07-29T10:01:33;4.07;;;2.00;;
34920;SDS011;21128;50.016;20.002;2022-07-29T10:04:01;4.63;;;2.00;;
34920;SDS011;21128;50.016;20.002;2022-07-29T10:06:29;2.27;;;1.60;;
34920;SDS011;21128;50.016;20.002;2022-07-29T10:09:09;6.70;;;1.87;;
34920;SDS011;21128;50.016;20.002;2022-07-29T10:11:43;3.40;;;1.87;;
34920;SDS011;21128;50.016;20.002;2022-07-29T10:14:42;4.45;;;2.35;;
34920;SDS011;21128;50.016;20.002;2022-07-29T10:17:09;3.67;;;1.90;;
34920;SDS011;21128;50.016;20.002;2022-07-29T10:19:37;3.23;;;2.00;;
34920;SDS011;21128;50.016;20.002;2022-07-29T10:22:07;6.67;;;2.00;;
34920;SDS011;21128;50.016;20.002;2022-07-29T10:24:35;3.60;;;1.90;;
34920;SDS011;21128;50.016;20.002;2022-07-29T10:27:06;5.30;;;2.20;;
34920;SDS011;21128;50.016;20.002;2022-07-29T10:29:34;3.93;;;2.23;;
34920;SDS011;21128;50.016;20.002;2022-07-29T10:35:01;6.17;;;1.87;;
34920;SDS011;21128;50.016;20.002;2022-07-29T10:40:25;5.17;;;2.23;;
34920;SDS011;21128;50.016;20.002;2022-07-29T10:43:23;6.45;;;2.40;;
34920;SDS011;21128;50.016;20.002;2022-07-29T10:45:55;3.93;;;1.83;;
34920;SDS011;21128;50.016;20.002;2022-07-29T10:48:24;8.83;;;2.10;;
34920;SDS011;21128;50.016;20.002;2022-07-29T10:50:53;4.97;;;1.77;;
34920;SDS011;21128;50.016;20.002;2022-07-29T10:56:29;6.57;;;2.47;;
34920;SDS011;21128;50.016;20.002;2022-07-29T11:01:48;6.90;;;2.10;;
34920;SDS011;21128;50.016;20.002;2022-07-29T11:04:30;7.00;;;2.33;;
34920;SDS011;21128;50.016;20.002;2022-07-29T11:07:11;4.43;;;2.07;;
34920;SDS011;21128;50.016;20.002;2022-07-29T11:10:13;3.70;;;1.97;;
34920;SDS011;21128;50.016;20.002;2022-07-29T11:15:24;5.93;;;2.23;;
34920;SDS011;21128;50.016;20.002;2022-07-29T11:31:31;3.90;;;2.15;;
34920;SDS011;21128;50.016;20.002;2022-07-29T11:34:15;6.97;;;2.83;;
34920;SDS011;21128;50.016;20.002;2022-07-29T11:39:40;6.20;;;2.47;;
34920;SDS011;21128;50.016;20.002;2022-07-29T11:42:37;7.37;;;2.57;;
34920;SDS011;21128;50.016;20.002;2022-07-29T11:45:05;8.30;;;2.30;;
34920;SDS011;21128;50.016;20.002;2022-07-29T11:50:17;5.57;;;2.10;;
34920;SDS011;21128;50.016;20.002;2022-07-29T11:52:54;5.67;;;1.93;;
34920;SDS011;21128;50.016;20.002;2022-07-29T11:55:27;10.33;;;2.33;;
34920;SDS011;21128;50.016;20.002;2022-07-29T11:57:55;5.50;;;2.27;;
34920;SDS011;21128;50.016;20.002;2022-07-29T12:00:35;9.67;;;2.00;;
34920;SDS011;21128;50.016;20.002;2022-07-29T12:03:05;5.23;;;2.00;;
34920;SDS011;21128;50.016;20.002;2022-07-29T12:05:39;7.27;;;2.47;;
34920;SDS011;21128;50.016;20.002;2022-07-29T12:10:42;6.53;;;2.17;;
34920;SDS011;21128;50.016;20.002;2022-07-29T12:13:09;6.75;;;2.00;;
34920;SDS011;21128;50.016;20.002;2022-07-29T12:15:37;6.28;;;2.17;;
34920;SDS011;21128;50.016;20.002;2022-07-29T12:18:17;5.50;;;2.30;;
34920;SDS011;21128;50.016;20.002;2022-07-29T12:20:56;3.70;;;2.10;;
34920;SDS011;21128;50.016;20.002;2022-07-29T12:23:30;8.73;;;2.03;;
34920;SDS011;21128;50.016;20.002;2022-07-29T12:25:58;7.30;;;2.33;;
34920;SDS011;21128;50.016;20.002;2022-07-29T12:28:26;9.00;;;2.90;;
34920;SDS011;21128;50.016;20.002;2022-07-29T12:31:05;5.63;;;2.50;;
34920;SDS011;21128;50.016;20.002;2022-07-29T12:33:39;6.30;;;2.40;;
34920;SDS011;21128;50.016;20.002;2022-07-29T12:36:06;5.95;;;2.25;;
34920;SDS011;21128;50.016;20.002;2022-07-29T12:38:34;4.77;;;2.53;;
34920;SDS011;21128;50.016;20.002;2022-07-29T12:41:02;8.57;;;2.63;;
34920;SDS011;21128;50.016;20.002;2022-07-29T12:43:30;5.70;;;2.60;;
34920;SDS011;21128;50.016;20.002;2022-07-29T12:45:57;8.87;;;2.33;;
34920;SDS011;21128;50.016;20.002;2022-07-29T12:48:38;3.33;;;2.00;;
34920;SDS011;21128;50.016;20.002;2022-07-29T12:51:13;7.30;;;2.03;;
34920;SDS011;21128;50.016;20.002;2022-07-29T12:53:41;6.00;;;2.20;;
34920;SDS011;21128;50.016;20.002;2022-07-29T12:56:15;4.95;;;2.40;;
34920;SDS011;21128;50.016;20.002;2022-07-29T12:58:42;5.20;;;2.30;;
34920;SDS011;21128;50.016;20.002;2022-07-29T13:01:17;4.90;;;2.33;;
34920;SDS011;21128;50.016;20.002;2022-07-29T13:06:43;6.77;;;2.43;;
34920;SDS011;21128;50.016;20.002;2022-07-29T13:09:12;11.93;;;2.40;;
34920;SDS011;21128;50.016;20.002;2022-07-29T13:11:47;6.27;;;2.33;;
34920;SDS011;21128;50.016;20.002;2022-07-29T13:14:32;4.80;;;2.00;;
34920;SDS011;21128;50.016;20.002;2022-07-29T13:17:04;3.70;;;2.10;;
34920;SDS011;21128;50.016;20.002;2022-07-29T13:22:10;9.30;;;2.50;;
34920;SDS011;21128;50.016;20.002;2022-07-29T13:25:00;9.40;;;2.33;;
34920;SDS011;21128;50.016;20.002;2022-07-29T13:27:29;3.97;;;2.30;;
34920;SDS011;21128;50.016;20.002;2022-07-29T13:29:59;6.83;;;2.47;;
34920;SDS011;21128;50.016;20.002;2022-07-29T13:32:28;7.47;;;2.23;;
34920;SDS011;21128;50.016;20.002;2022-07-29T13:35:04;6.47;;;2.20;;
34920;SDS011;21128;50.016;20.002;2022-07-29T13:37:33;4.50;;;2.30;;
34920;SDS011;21128;50.016;20.002;2022-07-29T13:40:05;5.93;;;2.20;;
34920;SDS011;21128;50.016;20.002;2022-07-29T13:42:34;4.37;;;2.10;;
34920;SDS011;21128;50.016;20.002;2022-07-29T13:45:00;2.50;;;2.05;;
34920;SDS011;21128;50.016;20.002;2022-07-29T13:47:34;7.47;;;2.40;;
34920;SDS011;21128;50.016;20.002;2022-07-29T13:50:02;2.90;;;1.93;;
34920;SDS011;21128;50.016;20.002;2022-07-29T13:52:31;4.87;;;2.40;;
34920;SDS011;21128;50.016;20.002;2022-07-29T13:54:58;6.90;;;2.80;;
34920;SDS011;21128;50.016;20.002;2022-07-29T13:57:31;4.70;;;2.27;;
34920;SDS011;21128;50.016;20.002;2022-07-29T14:00:06;10.17;;;2.20;;
34920;SDS011;21128;50.016;20.002;2022-07-29T14:02:33;7.30;;;2.30;;
34920;SDS011;21128;50.016;20.002;2022-07-29T14:05:00;6.28;;;1.95;;
34920;SDS011;21128;50.016;20.002;2022-07-29T14:07:27;4.77;;;2.20;;
34920;SDS011;21128;50.016;20.002;2022-07-29T14:10:00;9.95;;;2.00;;
34920;SDS011;21128;50.016;20.002;2022-07-29T14:12:26;7.93;;;2.50;;
34920;SDS011;21128;50.016;20.002;2022-07-29T14:14:53;8.08;;;2.27;;
34920;SDS011;21128;50.016;20.002;2022-07-29T14:17:20;9.57;;;1.93;;
34920;SDS011;21128;50.016;20.002;2022-07-29T14:19:47;8.03;;;2.00;;
34920;SDS011;21128;50.016;20.002;2022-07-29T14:22:14;4.23;;;1.97;;
34920;SDS011;21128;50.016;20.002;2022-07-29T14:24:40;5.10;;;2.30;;
34920;SDS011;21128;50.016;20.002;2022-07-29T14:27:08;6.83;;;2.03;;
34920;SDS011;21128;50.016;20.002;2022-07-29T14:29:34;5.07;;;2.17;;
34920;SDS011;21128;50.016;20.002;2022-07-29T14:32:01;4.83;;;2.17;;
34920;SDS011;21128;50.016;20.002;2022-07-29T14:34:42;5.83;;;2.70;;
34920;SDS011;21128;50.016;20.002;2022-07-29T14:37:09;5.80;;;2.13;;
34920;SDS011;21128;50.016;20.002;2022-07-29T14:39:36;3.73;;;2.03;;
34920;SDS011;21128;50.016;20.002;2022-07-29T14:42:03;3.63;;;2.10;;
34920;SDS011;21128;50.016;20.002;2022-07-29T14:44:30;6.85;;;1.80;;
34920;SDS011;21128;50.016;20.002;2022-07-29T14:46:58;4.23;;;2.17;;
34920;SDS011;21128;50.016;20.002;2022-07-29T14:49:26;5.60;;;2.30;;
34920;SDS011;21128;50.016;20.002;2022-07-29T14:51:53;8.70;;;2.20;;
34920;SDS011;21128;50.016;20.002;2022-07-29T14:54:20;4.60;;;2.40;;
34920;SDS011;21128;50.016;20.002;2022-07-29T14:56:47;7.73;;;2.33;;
34920;SDS011;21128;50.016;20.002;2022-07-29T14:59:21;7.83;;;2.23;;
34920;SDS011;21128;50.016;20.002;2022-07-29T15:01:48;12.77;;;2.57;;
34920;SDS011;21128;50.016;20.002;2022-07-29T15:04:22;7.17;;;2.13;;
34920;SDS011;21128;50.016;20.002;2022-07-29T15:06:49;8.63;;;2.80;;
34920;SDS011;21128;50.016;20.002;2022-07-29T15:09:23;12.70;;;5.45;;
34920;SDS011;21128;50.016;20.002;2022-07-29T15:11:50;4.20;;;2.53;;
34920;SDS011;21128;50.016;20.002;2022-07-29T15:14:23;10.60;;;2.97;;
34920;SDS011;21128;50.016;20.002;2022-07-29T15:16:50;5.65;;;2.40;;
34920;SDS011;21128;50.016;20.002;2022-07-29T15:19:17;4.67;;;2.40;;
34920;SDS011;21128;50.016;20.002;2022-07-29T15:21:44;7.57;;;2.80;;
34920;SDS011;21128;50.016;20.002;2022-07-29T15:24:11;8.13;;;2.60;;
34920;SDS011;21128;50.016;20.002;2022-07-29T15:26:38;5.33;;;2.67;;
34920;SDS011;21128;50.016;20.002;2022-07-29T15:29:04;6.43;;;2.63;;
34920;SDS011;21128;50.016;20.002;2022-07-29T15:31:31;6.58;;;2.60;;
34920;SDS011;21128;50.016;20.002;2022-07-29T15:34:18;4.53;;;2.40;;
34920;SDS011;21128;50.016;20.002;2022-07-29T15:36:47;3.77;;;2.30;;
34920;SDS011;21128;50.016;20.002;2022-07-29T15:39:13;6.87;;;2.10;;
34920;SDS011;21128;50.016;20.002;2022-07-29T15:41:40;6.33;;;2.60;;
34920;SDS011;21128;50.016;20.002;2022-07-29T15:44:07;10.58;;;2.60;;
34920;SDS011;21128;50.016;20.002;2022-07-29T15:46:34;6.13;;;2.73;;